Terminal Aerodrome Forecast
Issued by NWS

Home | Current Version | Previous Version | Text Only | Print | Product List | Glossary On
Versions: 1 2 3 4 5 6 7 8 9 10 11 12 13 14 15 16 17
000
FTUS43 KDMX 272336
TAFMCW
TAF
KMCW 272336Z 2800/2824 19005KT P6SM FEW035
     FM280500 15004KT 4SM BR SCT006
      TEMPO 2810/2813 3/4SM BR BKN002
     FM281400 16008KT P6SM SCT035=

USA.gov is the U.S. government's official web portal to all federal, state and local government web resources and services.